Time;durP1;ratioP1;P1;durP2;ratioP2;P2;SDS_P1;SDS_P2;PMS_P1;PMS_P2;Temp;Humidity;BMP_temperature;BMP_pressure;BME280_temperature;BME280_humidity;BME280_pressure;Samples;Min_cycle;Max_cycle;Signal;HPM_P1;HPM_P2
2021/12/24 00:40:18;;;;;;;86.90;16.33;;;6.40;99.90;;;;;;5218200;23;20049;-92
2021/12/24 00:42:50;;;;;;;70.65;16.05;;;6.40;99.90;;;;;;4881499;29;20052;-92
2021/12/24 00:45:19;;;;;;;73.50;15.68;;;6.40;99.90;;;;;;4882636;29;20044;-92
2021/12/24 00:47:46;;;;;;;75.05;16.33;;;6.40;99.90;;;;;;4882581;29;20052;-91
2021/12/24 00:50:16;;;;;;;72.28;15.23;;;6.40;99.90;;;;;;4882886;29;20143;-91
2021/12/24 00:52:52;;;;;;;78.78;16.45;;;6.40;99.90;;;;;;4882911;29;20460;-91
2021/12/24 00:55:27;;;;;;;67.72;14.07;;;6.40;99.90;;;;;;4882489;29;20365;-90
2021/12/24 00:58:04;;;;;;;66.88;16.23;;;6.40;99.90;;;;;;4882439;29;20053;-91
2021/12/24 01:00:38;;;;;;;71.15;15.80;;;6.40;99.90;;;;;;4882486;29;20048;-92
2021/12/24 01:03:53;;;;;;;;;;;;;;;;;;;;;
2021/12/24 01:19:49;;;;;;;59.58;13.30;;;6.50;99.90;;;;;;4824268;29;20044;-88
2021/12/24 01:28:38;;;;;;;65.72;16.55;;;6.50;99.90;;;;;;4900767;29;20052;-89
2021/12/24 03:19:13;;;;;;;;;;;;;;;;;;;;;
2021/12/24 03:28:49;;;;;;;55.10;13.15;;;6.90;99.90;;;;;;4827428;29;20510;-88
2021/12/24 03:31:15;;;;;;;69.43;14.70;;;6.90;99.90;;;;;;4843037;29;20068;-89
2021/12/24 03:33:40;;;;;;;67.60;14.52;;;6.90;99.90;;;;;;4862637;29;20060;-88
2021/12/24 03:36:09;;;;;;;88.38;16.92;;;6.90;99.90;;;;;;4901544;29;20084;-90
2021/12/24 03:42:16;;;;;;;90.40;16.40;;;6.90;99.90;;;;;;4878155;29;20396;-90
2021/12/24 03:45:41;;;;;;;89.53;16.10;;;6.90;99.90;;;;;;4906886;29;20404;-91
2021/12/24 03:56:18;;;;;;;109.55;18.02;;;7.00;99.90;;;;;;4891445;29;20511;-93
2021/12/24 03:59:13;;;;;;;97.80;16.15;;;7.00;99.90;;;;;;4919355;29;20054;-92
2021/12/24 04:01:41;;;;;;;103.97;16.75;;;7.00;99.90;;;;;;4902731;29;20058;-90
2021/12/24 05:05:06;;;;;;;123.65;23.80;;;7.30;99.90;;;;;;4882317;29;20116;-88
2021/12/24 05:08:18;;;;;;;99.47;22.83;;;7.30;99.90;;;;;;4898962;29;20087;-88
2021/12/24 05:10:38;;;;;;;97.72;23.55;;;7.40;99.90;;;;;;4880972;29;20092;-93
2021/12/24 05:14:15;;;;;;;122.47;26.63;;;7.40;99.90;;;;;;4882588;29;20052;-94
2021/12/24 05:31:09;;;;;;;104.20;22.33;;;7.30;99.90;;;;;;4717470;30;20091;-90
2021/12/24 05:34:18;;;;;;;109.13;23.23;;;7.40;99.90;;;;;;4768721;30;20059;-91
2021/12/24 05:36:52;;;;;;;103.22;21.42;;;7.40;99.90;;;;;;4811207;29;20060;-90
2021/12/24 05:39:22;;;;;;;88.10;21.17;;;7.40;99.90;;;;;;4825750;29;20514;-91
2021/12/24 05:42:05;;;;;;;82.90;19.98;;;7.50;99.90;;;;;;4823650;29;20054;-91
2021/12/24 05:44:49;;;;;;;88.80;19.00;;;7.50;99.90;;;;;;4813635;29;20060;-91
2021/12/24 07:03:20;;;;;;;13.23;3.67;;;6.80;99.90;;;;;;5479125;23;20056;-89
2021/12/24 07:05:46;;;;;;;14.10;3.08;;;6.80;99.90;;;;;;4902897;29;20056;-89
2021/12/24 07:08:12;;;;;;;21.50;3.50;;;6.70;99.90;;;;;;4902944;29;20040;-88
2021/12/24 07:10:38;;;;;;;15.45;3.88;;;6.70;99.90;;;;;;4902051;29;20052;-87
2021/12/24 07:13:03;;;;;;;11.65;3.53;;;6.60;99.90;;;;;;4902624;29;20078;-89
2021/12/24 07:15:29;;;;;;;11.48;3.45;;;6.60;99.90;;;;;;4903011;29;20182;-88
2021/12/24 07:17:55;;;;;;;10.63;3.67;;;6.60;99.90;;;;;;4902839;29;20055;-90
2021/12/24 07:20:23;;;;;;;9.00;3.35;;;6.60;99.90;;;;;;4902775;29;20055;-89
2021/12/24 07:22:49;;;;;;;17.63;4.15;;;6.60;99.90;;;;;;4902734;29;20048;-89
2021/12/24 07:25:17;;;;;;;19.40;4.22;;;6.60;99.90;;;;;;4902406;29;20052;-89
2021/12/24 07:27:43;;;;;;;19.33;4.38;;;6.50;99.90;;;;;;4902537;29;20051;-90
2021/12/24 07:30:11;;;;;;;14.73;3.90;;;6.50;99.90;;;;;;4902594;29;20040;-89
2021/12/24 07:32:41;;;;;;;13.05;3.58;;;6.50;99.90;;;;;;4902702;29;20472;-88
2021/12/24 07:35:08;;;;;;;12.10;3.65;;;6.50;99.90;;;;;;4902373;29;20059;-88
2021/12/24 07:37:34;;;;;;;14.77;3.90;;;6.50;99.90;;;;;;4902588;29;20059;-89
2021/12/24 07:40:02;;;;;;;12.25;3.40;;;6.50;99.90;;;;;;4902526;29;20115;-88
2021/12/24 07:42:29;;;;;;;13.15;3.63;;;6.40;99.90;;;;;;4902420;29;20048;-88
2021/12/24 07:44:54;;;;;;;13.23;3.47;;;6.50;99.90;;;;;;4902496;29;20083;-88
2021/12/24 07:47:27;;;;;;;13.52;3.25;;;6.50;99.90;;;;;;4902415;29;20206;-88
2021/12/24 07:50:04;;;;;;;12.13;3.03;;;6.50;99.90;;;;;;4902151;29;20048;-87
2021/12/24 07:52:30;;;;;;;9.40;3.13;;;6.50;99.90;;;;;;4902015;29;20049;-88
2021/12/24 07:54:56;;;;;;;14.50;3.97;;;6.50;99.90;;;;;;4901970;29;20058;-89
2021/12/24 07:57:24;;;;;;;11.35;3.30;;;6.50;99.90;;;;;;4902169;29;20040;-88
2021/12/24 07:59:52;;;;;;;13.18;3.75;;;6.50;99.90;;;;;;4901950;29;20060;-88
2021/12/24 08:02:25;;;;;;;14.98;3.97;;;6.50;99.90;;;;;;4901852;29;20040;-88
2021/12/24 08:04:52;;;;;;;15.00;3.75;;;6.50;99.90;;;;;;4901890;29;20056;-88
2021/12/24 08:07:20;;;;;;;10.85;3.83;;;6.50;99.90;;;;;;4902062;29;20506;-88
2021/12/24 08:09:50;;;;;;;14.77;5.00;;;6.50;99.90;;;;;;4901723;29;20040;-87
2021/12/24 08:12:16;;;;;;;21.23;5.43;;;6.50;99.90;;;;;;4901983;29;20063;-87
2021/12/24 08:14:45;;;;;;;14.98;4.90;;;6.50;99.90;;;;;;4901571;29;20123;-87
2021/12/24 08:17:19;;;;;;;15.82;4.55;;;6.50;99.90;;;;;;4901252;29;20123;-87
2021/12/24 08:19:49;;;;;;;16.27;5.13;;;6.50;99.90;;;;;;4918510;29;20044;-88
2021/12/24 08:22:18;;;;;;;16.63;5.32;;;6.50;99.90;;;;;;4901038;29;20567;-89
2021/12/24 08:24:43;;;;;;;17.48;4.78;;;6.50;99.90;;;;;;4900415;29;20048;-87
2021/12/24 08:27:09;;;;;;;13.55;4.30;;;6.50;99.90;;;;;;4901245;29;20048;-87
2021/12/24 08:29:36;;;;;;;18.35;5.10;;;6.50;99.90;;;;;;4901121;29;20052;-88
2021/12/24 08:32:06;;;;;;;14.95;4.40;;;6.50;99.90;;;;;;4901420;29;20040;-89
2021/12/24 08:34:32;;;;;;;21.73;6.35;;;6.60;99.90;;;;;;4901128;29;20087;-88
2021/12/24 08:36:58;;;;;;;19.50;5.50;;;6.70;99.90;;;;;;4894238;29;20500;-87
2021/12/24 08:39:24;;;;;;;17.42;6.18;;;6.70;99.90;;;;;;4894572;29;20047;-86
2021/12/24 08:41:54;;;;;;;13.60;5.22;;;6.80;99.90;;;;;;4900935;29;20517;-88
2021/12/24 08:44:22;;;;;;;14.55;5.28;;;6.80;99.90;;;;;;4901100;29;20052;-85
2021/12/24 08:46:48;;;;;;;15.18;5.00;;;6.80;99.90;;;;;;4900567;29;20052;-87
2021/12/24 08:49:14;;;;;;;12.20;5.65;;;6.80;99.90;;;;;;4901011;29;20044;-88
2021/12/24 08:51:45;;;;;;;12.20;5.18;;;6.70;99.90;;;;;;4901101;29;20102;-88
2021/12/24 08:54:17;;;;;;;8.57;3.90;;;6.60;99.90;;;;;;4900726;29;20514;-87
2021/12/24 08:56:43;;;;;;;10.20;4.13;;;6.60;99.90;;;;;;4900767;29;20155;-86
2021/12/24 08:59:31;;;;;;;11.10;5.00;;;6.60;99.90;;;;;;4900883;29;20500;-90
2021/12/24 09:02:03;;;;;;;10.43;4.97;;;6.50;99.90;;;;;;4900757;29;20503;-89
2021/12/24 09:04:31;;;;;;;13.95;4.63;;;6.30;99.90;;;;;;4900236;29;20063;-87
2021/12/24 09:07:22;;;;;;;16.25;4.80;;;6.30;99.90;;;;;;4900619;29;20095;-89
2021/12/24 09:10:10;;;;;;;;;;;;;;;;;;;;;
2021/12/24 09:15:54;;;;;;;;;;;6.00;99.90;;;;;;4912367;29;20107;-88
2021/12/24 09:18:35;;;;;;;13.55;5.78;;;6.10;99.90;;;;;;4900788;29;19934;-89
2021/12/24 09:21:11;;;;;;;13.25;4.82;;;6.10;99.90;;;;;;4900178;29;20149;-89
2021/12/24 09:24:06;;;;;;;11.10;4.40;;;6.00;99.90;;;;;;4900481;29;20419;-87
2021/12/24 09:26:38;;;;;;;7.47;2.60;;;6.00;99.90;;;;;;4900350;29;20156;-87
2021/12/24 09:29:16;;;;;;;3.70;1.10;;;6.10;99.90;;;;;;4900178;29;20408;-90
2021/12/24 09:31:50;;;;;;;2.90;1.10;;;6.10;99.90;;;;;;4885196;29;20051;-87
2021/12/24 09:38:02;;;;;;;;;;;;;;;;;;;;;
2021/12/24 09:43:58;;;;;;;2.60;1.30;;;6.00;99.90;;;;;;4883955;29;20423;-89
2021/12/24 09:46:56;;;;;;;3.60;1.75;;;6.10;99.90;;;;;;4914359;29;20052;-90
2021/12/24 09:49:54;;;;;;;6.65;2.67;;;6.00;99.90;;;;;;4895321;29;20056;-89
2021/12/24 09:53:17;;;;;;;;;;;;;;;;;;;;;
2021/12/24 09:55:43;;;;;;;8.52;3.58;;;5.70;99.90;;;;;;4884510;29;20068;-87
2021/12/24 09:58:11;;;;;;;9.10;4.05;;;5.70;99.90;;;;;;4899815;29;20048;-87
2021/12/24 10:00:37;;;;;;;11.77;4.40;;;5.80;99.90;;;;;;4899723;29;20135;-87
2021/12/24 10:03:26;;;;;;;10.10;4.18;;;5.70;99.90;;;;;;4899398;29;20139;-91
2021/12/24 10:06:45;;;;;;;;;;;;;;;;;;;;;
2021/12/24 10:09:12;;;;;;;12.23;6.15;;;5.60;99.90;;;;;;4885533;29;20064;-87
2021/12/24 10:12:17;;;;;;;;;;;;;;;;;;;;;
2021/12/24 10:15:11;;;;;;;;;;;;;;;;;;;;;
2021/12/24 10:17:58;;;;;;;14.32;6.65;;;5.50;99.90;;;;;;4898304;29;20067;-90
2021/12/24 10:20:55;;;;;;;15.30;7.03;;;5.50;99.90;;;;;;4900383;29;20040;-89
2021/12/24 10:23:52;;;;;;;19.40;7.75;;;5.50;99.90;;;;;;4899845;29;20084;-89
2021/12/24 10:26:28;;;;;;;21.00;9.10;;;5.40;99.90;;;;;;4899836;29;20071;-89
2021/12/24 10:29:03;;;;;;;;;;;5.40;99.90;;;;;;4900216;29;20055;-90
2021/12/24 10:32:06;;;;;;;15.75;6.75;;;5.40;99.90;;;;;;4900045;29;19923;-90
2021/12/24 10:34:39;;;;;;;15.47;6.83;;;5.40;99.90;;;;;;4895305;29;20143;-89
2021/12/24 10:37:28;;;;;;;15.32;7.30;;;5.40;99.90;;;;;;4899869;29;20052;-89
2021/12/24 10:40:17;;;;;;;;;;;;;;;;;;;;;
2021/12/24 10:43:11;;;;;;;23.60;8.50;;;5.40;99.90;;;;;;4896829;29;20064;-89
2021/12/24 10:45:39;;;;;;;;;;;5.40;99.90;;;;;;4900806;29;20083;-89
2021/12/24 10:48:20;;;;;;;17.67;7.80;;;5.40;99.90;;;;;;4903407;29;20439;-89
2021/12/24 10:51:19;;;;;;;15.77;7.45;;;5.40;99.90;;;;;;4902955;29;20054;-89
2021/12/24 11:01:02;;;;;;;15.68;6.85;;;5.40;99.90;;;;;;4915636;23;20575;-90
2021/12/24 11:04:06;;;;;;;17.85;7.00;;;5.40;99.90;;;;;;4901849;29;20044;-90
2021/12/24 11:06:55;;;;;;;;;;;;;;;;;;;;;
2021/12/24 11:10:11;;;;;;;;;;;;;;;;;;;;;
2021/12/24 11:12:53;;;;;;;17.67;6.93;;;5.50;99.90;;;;;;4888883;29;20056;-89
2021/12/24 11:15:52;;;;;;;16.02;6.32;;;5.50;99.90;;;;;;4902715;29;20508;-90
2021/12/24 11:19:28;;;;;;;;;;;;;;;;;;;;;
2021/12/24 11:32:24;;;;;;;15.40;6.28;;;5.60;99.90;;;;;;4874339;29;20064;-88
2021/12/24 11:34:56;;;;;;;18.98;8.68;;;5.60;99.90;;;;;;4883508;29;20139;-88
2021/12/24 11:43:55;;;;;;;15.65;6.15;;;5.60;99.90;;;;;;4883290;29;20063;-88
2021/12/24 11:46:33;;;;;;;11.15;5.07;;;5.70;99.90;;;;;;4883390;29;20052;-89
2021/12/24 11:49:48;;;;;;;9.80;3.60;;;5.70;99.90;;;;;;4883369;29;20044;-90
2021/12/24 11:53:10;;;;;;;;;;;;;;;;;;;;;
2021/12/24 11:57:04;;;;;;;;;;;;;;;;;;;;;
2021/12/24 12:03:08;;;;;;;3.30;1.33;;;5.80;99.90;;;;;;4859109;29;20047;-90
2021/12/24 12:05:44;;;;;;;2.60;1.40;;;5.90;99.90;;;;;;4889731;29;20053;-90
2021/12/24 12:14:50;;;;;;;4.95;2.40;;;5.90;99.90;;;;;;4882719;29;20139;-93
2021/12/24 12:31:22;;;;;;;6.88;1.08;;;6.00;99.90;;;;;;4834886;29;20151;-91
2021/12/24 12:33:57;;;;;;;2.20;1.05;;;6.00;99.90;;;;;;4882969;29;20044;-90
2021/12/24 12:36:40;;;;;;;4.82;1.38;;;6.00;99.90;;;;;;4882792;29;20143;-89
2021/12/24 12:39:28;;;;;;;4.63;1.98;;;6.00;99.90;;;;;;4881477;29;20048;-89
2021/12/24 12:41:54;;;;;;;4.72;1.83;;;6.10;99.90;;;;;;4882631;29;20112;-88
2021/12/24 12:44:20;;;;;;;4.30;1.95;;;6.10;99.90;;;;;;4882045;29;20575;-87
2021/12/24 12:46:50;;;;;;;5.57;1.88;;;6.10;99.90;;;;;;4882169;29;20049;-85
2021/12/24 12:49:28;;;;;;;5.05;1.70;;;6.00;99.90;;;;;;4881871;29;20052;-92
2021/12/24 12:52:13;;;;;;;3.60;1.60;;;6.10;99.90;;;;;;4882209;29;20053;-90
2021/12/24 12:54:41;;;;;;;4.35;1.45;;;6.10;99.90;;;;;;4882189;29;20049;-86
2021/12/24 12:57:16;;;;;;;5.88;1.70;;;6.10;99.90;;;;;;4881954;29;20103;-88
2021/12/24 13:00:27;;;;;;;2.58;1.60;;;6.20;99.90;;;;;;4882129;29;20484;-89
2021/12/24 13:05:31;;;;;;;8.32;1.30;;;6.30;99.90;;;;;;4881967;29;20049;-87
2021/12/24 13:08:09;;;;;;;4.28;1.50;;;6.30;99.90;;;;;;4881918;29;20044;-86
2021/12/24 13:10:35;;;;;;;5.95;1.73;;;6.30;99.90;;;;;;4881128;29;20094;-87
2021/12/24 13:13:03;;;;;;;3.75;1.58;;;6.40;99.90;;;;;;4881732;29;20440;-86
2021/12/24 13:15:29;;;;;;;5.07;2.00;;;6.40;99.90;;;;;;4881917;29;20058;-87
2021/12/24 13:17:58;;;;;;;3.75;1.45;;;6.40;99.90;;;;;;4882793;29;20135;-87
2021/12/24 13:22:26;;;;;;;2.40;0.60;;;6.40;99.90;;;;;;4881583;29;20056;-88
2021/12/24 13:23:21;;;;;;;3.25;0.57;;;6.40;99.90;;;;;;4880897;29;20436;-86
2021/12/24 13:25:50;;;;;;;4.70;1.10;;;6.50;99.90;;;;;;4882073;29;20087;-87
2021/12/24 13:28:16;;;;;;;4.38;1.50;;;6.40;99.90;;;;;;4881611;29;20049;-86
2021/12/24 13:30:41;;;;;;;4.05;1.20;;;6.40;99.90;;;;;;4881346;29;20040;-86
2021/12/24 13:33:09;;;;;;;4.70;0.80;;;6.50;99.90;;;;;;4881843;29;20068;-85
2021/12/24 13:35:44;;;;;;;2.75;0.50;;;6.50;99.90;;;;;;4881404;29;20489;-84
2021/12/24 13:38:18;;;;;;;3.15;0.60;;;6.50;99.90;;;;;;4898211;29;20052;-85
2021/12/24 13:40:45;;;;;;;2.42;0.20;;;6.40;99.90;;;;;;4881463;29;20047;-85
2021/12/24 13:43:18;;;;;;;4.18;0.40;;;6.40;99.90;;;;;;4881661;29;20127;-86
2021/12/24 13:45:48;;;;;;;2.30;0.35;;;6.40;99.90;;;;;;4881259;29;20041;-85
2021/12/24 13:48:27;;;;;;;7.05;0.85;;;6.30;99.90;;;;;;4881184;29;20053;-86
2021/12/24 13:54:43;;;;;;;3.92;1.50;;;6.20;99.90;;;;;;4897929;29;20484;-85
2021/12/24 13:56:49;;;;;;;1.50;0.20;;;6.20;99.90;;;;;;4865118;29;20056;-86
2021/12/24 13:59:20;;;;;;;5.43;0.50;;;6.20;99.90;;;;;;4881235;29;20045;-86
2021/12/24 14:01:46;;;;;;;2.05;0.35;;;6.10;99.90;;;;;;4881183;29;20086;-86
2021/12/24 14:04:16;;;;;;;4.68;0.90;;;6.10;99.90;;;;;;4897847;29;20084;-85
2021/12/24 14:07:02;;;;;;;5.15;0.68;;;6.10;99.90;;;;;;4881309;29;20150;-84
2021/12/24 14:09:31;;;;;;;3.85;0.57;;;6.10;99.90;;;;;;4881233;29;20048;-86
2021/12/24 14:12:03;;;;;;;2.60;0.32;;;6.00;99.90;;;;;;4881255;29;20144;-87
2021/12/24 14:15:06;;;;;;;3.45;0.43;;;6.00;99.90;;;;;;4881358;29;20101;-88
2021/12/24 14:18:02;;;;;;;5.30;0.70;;;6.00;99.90;;;;;;4881140;29;20056;-85
2021/12/24 14:20:48;;;;;;;5.60;0.63;;;6.00;99.90;;;;;;4880451;29;20060;-84
2021/12/24 14:23:16;;;;;;;2.60;0.32;;;6.00;99.90;;;;;;4900716;29;20049;-85
2021/12/24 14:26:11;;;;;;;6.35;0.85;;;6.00;99.90;;;;;;4885017;29;20056;-92
2021/12/24 14:28:37;;;;;;;3.50;0.50;;;6.00;99.90;;;;;;4876657;29;20092;-86
2021/12/24 14:31:05;;;;;;;4.28;0.57;;;5.90;99.90;;;;;;4884926;29;20056;-91
2021/12/24 14:33:45;;;;;;;5.53;0.93;;;5.90;99.90;;;;;;4885113;29;20064;-94
2021/12/24 14:36:45;;;;;;;6.38;1.20;;;5.90;99.90;;;;;;4884860;29;20208;-90
2021/12/24 14:39:29;;;;;;;;;;;;;;;;;;;;;
2021/12/24 14:45:49;;;;;;;6.20;0.75;;;5.70;99.90;;;;;;4884021;29;20060;-95
2021/12/24 14:48:27;;;;;;;5.22;1.05;;;5.70;99.90;;;;;;4899673;29;20055;-90
2021/12/24 14:55:42;;;;;;;1.83;0.38;;;5.70;99.90;;;;;;4805732;29;20050;-95
2021/12/24 15:19:56;;;;;;;;;;;;;;;;;;;;;
2021/12/24 15:31:17;;;;;;;11.35;3.55;;;5.30;99.90;;;;;;4843756;29;20054;-93
2021/12/24 15:34:05;;;;;;;11.00;2.80;;;5.30;99.90;;;;;;4829982;29;20388;-91
2021/12/24 15:37:17;;;;;;;10.68;1.98;;;5.20;99.90;;;;;;4828511;29;20066;-95
2021/12/24 15:40:29;;;;;;;8.70;1.95;;;5.20;99.90;;;;;;4822360;29;20202;-94
2021/12/24 15:47:25;;;;;;;10.27;1.80;;;5.20;99.90;;;;;;4816290;29;20184;-94
2021/12/24 15:57:11;;;;;;;18.55;5.60;;;4.70;99.90;;;;;;4717949;30;20103;-93
2021/12/24 16:00:43;;;;;;;;;;;;;;;;;;;;;
2021/12/24 16:32:37;;;;;;;14.60;5.30;;;4.00;99.90;;;;;;5111219;27;20809;-88
2021/12/24 16:35:23;;;;;;;15.55;4.97;;;3.90;99.90;;;;;;5109947;28;20044;-88
2021/12/24 16:37:52;;;;;;;13.10;4.50;;;3.80;99.90;;;;;;5110443;28;20043;-88
2021/12/24 16:40:19;;;;;;;16.88;5.30;;;3.80;99.90;;;;;;5109993;28;20051;-88
2021/12/24 16:42:50;;;;;;;11.23;3.95;;;3.80;99.90;;;;;;5110043;28;20048;-88
2021/12/24 16:45:16;;;;;;;11.32;4.43;;;3.70;99.90;;;;;;5110535;28;20028;-88
2021/12/24 16:47:43;;;;;;;12.63;5.07;;;3.70;99.90;;;;;;5109714;28;20050;-89
2021/12/24 16:50:09;;;;;;;11.85;5.43;;;3.60;99.90;;;;;;5110091;28;20058;-88
2021/12/24 16:52:34;;;;;;;11.68;5.40;;;3.50;99.90;;;;;;5110050;28;20075;-88
2021/12/24 16:55:00;;;;;;;17.38;4.40;;;3.60;99.90;;;;;;5110028;28;20067;-89
2021/12/24 16:57:26;;;;;;;16.08;5.97;;;3.50;99.90;;;;;;5109645;28;20040;-90
2021/12/24 16:59:52;;;;;;;12.10;5.38;;;3.40;99.90;;;;;;5109712;28;20048;-90
2021/12/24 17:02:18;;;;;;;14.68;6.00;;;3.40;99.90;;;;;;5109683;28;20491;-93
2021/12/24 17:05:15;;;;;;;12.00;5.75;;;3.30;99.90;;;;;;5110388;28;20081;-95
2021/12/24 17:08:30;;;;;;;10.63;4.57;;;3.20;99.90;;;;;;5109870;28;20056;-96
2021/12/24 17:14:39;;;;;;;;;;;;;;;;;;;;;
2021/12/24 17:22:19;;;;;;;10.52;5.40;;;3.10;99.90;;;;;;4939082;29;20514;-91
2021/12/24 17:26:11;;;;;;;13.32;7.10;;;3.10;99.90;;;;;;4886442;29;20100;-91
2021/12/24 17:33:52;;;;;;;12.45;4.75;;;3.10;99.90;;;;;;5002176;28;20061;-91
2021/12/24 17:40:54;;;;;;;;;;;;;;;;;;;;;
2021/12/24 17:49:07;;;;;;;;;;;;;;;;;;;;;
2021/12/24 18:00:33;;;;;;;;;;;;;;;;;;;;;
2021/12/24 18:07:26;;;;;;;12.18;3.67;;;2.70;99.90;;;;;;4832310;29;20053;-92
2021/12/24 18:10:16;;;;;;;8.23;4.15;;;2.60;99.90;;;;;;4846340;29;20057;-91
2021/12/24 18:50:42;;;;;;;8.93;2.70;;;2.40;99.90;;;;;;5673008;23;20046;-88
2021/12/24 18:53:08;;;;;;;10.43;3.17;;;2.40;99.90;;;;;;4939607;29;20051;-88
2021/12/24 18:55:52;;;;;;;6.38;2.63;;;2.40;99.90;;;;;;4939549;29;20051;-88
2021/12/24 18:58:27;;;;;;;5.50;2.13;;;2.40;99.90;;;;;;4924138;29;20089;-88
2021/12/24 19:02:04;;;;;;;;;;;;;;;;;;;;;
2021/12/24 19:04:52;;;;;;;10.73;3.15;;;2.40;99.90;;;;;;4939061;29;20039;-88
2021/12/24 19:07:42;;;;;;;14.07;1.92;;;2.30;99.90;;;;;;4939505;29;20039;-87
2021/12/24 19:10:55;;;;;;;4.95;1.75;;;2.30;99.90;;;;;;4938973;29;20079;-88
2021/12/24 19:13:22;;;;;;;5.95;1.95;;;2.30;99.90;;;;;;4862537;29;20049;-88
2021/12/24 19:15:48;;;;;;;7.70;2.85;;;2.30;99.90;;;;;;4862852;29;20064;-88
2021/12/24 19:18:14;;;;;;;7.25;1.90;;;2.30;99.90;;;;;;4863571;29;20053;-87
2021/12/24 19:20:44;;;;;;;6.80;1.50;;;2.20;99.90;;;;;;4881111;29;20583;-87
2021/12/24 19:23:16;;;;;;;7.45;2.13;;;2.30;99.90;;;;;;4939307;29;20054;-87
2021/12/24 19:25:48;;;;;;;6.95;2.15;;;2.20;99.90;;;;;;4939142;29;20043;-87
2021/12/24 19:28:14;;;;;;;6.78;2.33;;;2.20;99.90;;;;;;4939353;29;20059;-87
2021/12/24 19:30:42;;;;;;;7.28;2.30;;;2.30;99.90;;;;;;4938947;29;20058;-87
2021/12/24 19:33:08;;;;;;;5.60;2.70;;;2.20;99.90;;;;;;4939216;29;20090;-87
2021/12/24 19:35:34;;;;;;;10.93;1.88;;;2.20;99.90;;;;;;4956093;29;20055;-87
2021/12/24 19:38:02;;;;;;;15.02;4.20;;;2.20;99.90;;;;;;4938939;29;20039;-87
2021/12/24 19:40:44;;;;;;;10.73;3.75;;;2.20;99.90;;;;;;4938692;29;20047;-87
2021/12/24 19:43:10;;;;;;;8.80;3.17;;;2.10;99.90;;;;;;4956122;29;20051;-87
2021/12/24 19:45:50;;;;;;;5.18;2.80;;;2.10;99.90;;;;;;4939061;29;20062;-86
2021/12/24 19:48:24;;;;;;;12.05;2.90;;;2.20;99.90;;;;;;4938953;29;20039;-88
2021/12/24 19:54:26;;;;;;;7.05;2.53;;;2.10;99.90;;;;;;4938858;29;20049;-87
2021/12/24 19:57:46;;;;;;;6.68;1.75;;;2.10;99.90;;;;;;4954052;29;20066;-87
2021/12/24 20:04:41;;;;;;;;;;;;;;;;;;;;;
2021/12/24 20:19:04;;;;;;;;;;;;;;;;;;;;;
2021/12/24 20:22:13;;;;;;;6.60;1.70;;;1.80;99.90;;;;;;4818848;29;20054;-88
2021/12/24 20:25:05;;;;;;;3.33;1.13;;;1.70;99.90;;;;;;4791672;29;20184;-87
2021/12/24 20:27:32;;;;;;;8.48;1.20;;;1.50;99.90;;;;;;4870932;29;20122;-85
2021/12/24 20:30:19;;;;;;;5.68;1.58;;;1.50;99.90;;;;;;4862179;29;20438;-89
2021/12/24 20:33:20;;;;;;;10.63;1.40;;;1.40;99.90;;;;;;4893813;29;20510;-89
2021/12/24 20:38:48;;;;;;;5.82;0.90;;;1.20;99.90;;;;;;4916087;29;20192;-89
2021/12/24 20:41:25;;;;;;;4.97;1.05;;;1.30;99.90;;;;;;4913506;29;20053;-89
2021/12/24 20:44:27;;;;;;;;;;;;;;;;;;;;;
2021/12/24 20:47:02;;;;;;;6.45;2.03;;;1.20;99.90;;;;;;4906348;29;20064;-90
2021/12/24 20:49:28;;;;;;;5.13;1.30;;;1.10;99.90;;;;;;4916413;29;20063;-88
2021/12/24 20:52:27;;;;;;;5.22;1.25;;;1.10;99.90;;;;;;4915835;29;20044;-89
2021/12/24 20:55:02;;;;;;;4.07;0.98;;;1.10;99.90;;;;;;4916299;29;20040;-90
2021/12/24 20:57:56;;;;;;;6.55;1.67;;;1.00;99.90;;;;;;4917130;29;20059;-89
2021/12/24 21:00:30;;;;;;;7.70;2.45;;;1.00;99.90;;;;;;4913163;29;20555;-87
2021/12/24 21:02:59;;;;;;;6.53;1.95;;;0.90;99.90;;;;;;4953312;29;20106;-89
2021/12/24 21:05:25;;;;;;;5.88;1.20;;;0.90;99.90;;;;;;4938017;29;20471;-87
2021/12/24 21:07:51;;;;;;;4.50;1.42;;;0.90;99.90;;;;;;4940090;29;20399;-87
2021/12/24 21:10:19;;;;;;;4.75;1.30;;;0.80;99.90;;;;;;4941552;29;20054;-86
2021/12/24 21:12:45;;;;;;;3.95;1.33;;;0.70;99.90;;;;;;4941562;29;20047;-88
2021/12/24 21:15:17;;;;;;;6.32;1.25;;;0.70;99.90;;;;;;4941693;29;20058;-87
2021/12/24 21:17:45;;;;;;;9.20;1.38;;;0.70;99.90;;;;;;4941747;29;20050;-88
2021/12/24 21:20:12;;;;;;;4.47;1.52;;;0.70;99.90;;;;;;4941215;29;20161;-87
2021/12/24 21:22:38;;;;;;;6.53;1.05;;;0.60;99.90;;;;;;4941216;29;20062;-86
2021/12/24 21:25:09;;;;;;;6.93;1.52;;;0.60;99.90;;;;;;4941203;29;20048;-86
2021/12/24 21:27:37;;;;;;;6.88;1.50;;;0.50;99.90;;;;;;4941169;29;20058;-85
2021/12/24 21:30:06;;;;;;;4.80;1.60;;;0.50;99.90;;;;;;4941174;29;20483;-86
2021/12/24 21:32:33;;;;;;;6.53;1.20;;;0.50;99.90;;;;;;4941055;29;20059;-88
2021/12/24 21:34:59;;;;;;;10.10;1.92;;;0.50;99.90;;;;;;4941232;29;20399;-87
2021/12/24 21:37:25;;;;;;;10.98;1.55;;;0.50;99.90;;;;;;4941451;29;20078;-88
2021/12/24 21:39:51;;;;;;;6.82;1.55;;;0.40;99.90;;;;;;4941206;29;20097;-87
2021/12/24 21:42:17;;;;;;;10.60;1.75;;;0.40;99.90;;;;;;4940931;29;20039;-89
2021/12/24 21:44:43;;;;;;;9.43;1.65;;;0.40;99.90;;;;;;4940953;29;20070;-88
2021/12/24 21:47:10;;;;;;;6.95;0.90;;;0.40;99.90;;;;;;4940967;29;20055;-89
2021/12/24 21:49:36;;;;;;;9.60;1.83;;;0.40;99.90;;;;;;4941236;29;20071;-88
2021/12/24 21:52:07;;;;;;;4.35;1.25;;;0.40;99.90;;;;;;4940737;29;20129;-88
2021/12/24 21:54:35;;;;;;;6.63;1.30;;;0.40;99.90;;;;;;4941238;29;20047;-87
2021/12/24 21:57:02;;;;;;;5.45;1.15;;;0.40;99.90;;;;;;4940887;29;20047;-86
2021/12/24 21:59:28;;;;;;;9.73;1.30;;;0.40;99.90;;;;;;4940972;29;20051;-86
2021/12/24 22:01:54;;;;;;;7.50;1.38;;;0.30;99.90;;;;;;4940266;29;20052;-86
2021/12/24 22:09:42;;;;;;;6.18;1.48;;;0.30;99.90;;;;;;4940815;29;20047;-88
2021/12/24 22:12:10;;;;;;;8.57;1.30;;;0.30;99.90;;;;;;4940189;29;20483;-88
2021/12/24 22:14:36;;;;;;;4.80;1.15;;;0.20;99.90;;;;;;4940762;29;20047;-85
2021/12/24 22:17:01;;;;;;;5.72;1.50;;;0.20;99.90;;;;;;4940282;29;20042;-86
2021/12/24 22:19:27;;;;;;;6.75;1.30;;;0.20;99.90;;;;;;4940911;29;20055;-85
2021/12/24 22:22:02;;;;;;;9.50;1.27;;;0.20;99.90;;;;;;4940299;29;20054;-85
2021/12/24 22:24:30;;;;;;;9.95;1.35;;;0.20;99.90;;;;;;4940467;29;20427;-85
2021/12/24 22:26:57;;;;;;;6.50;1.42;;;0.10;99.90;;;;;;4940255;29;20089;-85
2021/12/24 22:29:23;;;;;;;6.90;1.52;;;0.00;99.90;;;;;;4940027;29;20047;-85
2021/12/24 22:31:52;;;;;;;3.83;1.30;;;0.00;99.90;;;;;;4940030;29;20043;-85
2021/12/24 22:34:19;;;;;;;5.05;1.02;;;0.00;99.90;;;;;;4940018;29;20056;-85
2021/12/24 22:36:45;;;;;;;3.55;1.25;;;0.00;99.90;;;;;;4940446;29;20085;-85
2021/12/24 22:39:12;;;;;;;6.93;1.02;;;-0.10;99.90;;;;;;4940268;29;20084;-85
2021/12/24 22:41:38;;;;;;;4.40;1.20;;;-0.10;99.90;;;;;;4939645;29;20055;-84
2021/12/24 22:44:05;;;;;;;3.67;0.95;;;-0.20;99.90;;;;;;4939783;29;20039;-80
2021/12/24 22:46:31;;;;;;;4.50;0.80;;;-0.20;99.90;;;;;;4939875;29;20056;-86
2021/12/24 22:48:58;;;;;;;5.55;1.23;;;-0.20;99.90;;;;;;4939941;29;20402;-86
2021/12/24 22:51:35;;;;;;;5.38;1.33;;;-0.30;99.90;;;;;;4940081;29;20074;-84
2021/12/24 22:54:02;;;;;;;3.53;1.48;;;-0.20;99.90;;;;;;4957311;29;20055;-90
2021/12/24 22:56:27;;;;;;;12.02;1.42;;;-0.20;99.90;;;;;;4940022;29;20134;-90
2021/12/24 22:58:53;;;;;;;11.70;2.13;;;-0.30;99.90;;;;;;4939785;29;20090;-90
2021/12/24 23:01:19;;;;;;;2.80;1.15;;;-0.40;99.90;;;;;;4939575;29;20067;-87
2021/12/24 23:03:45;;;;;;;6.85;1.30;;;-0.40;99.90;;;;;;4939866;29;20122;-88
2021/12/24 23:06:11;;;;;;;5.45;1.23;;;-0.40;99.90;;;;;;4939689;29;20162;-89
2021/12/24 23:08:42;;;;;;;4.80;1.15;;;-0.40;99.90;;;;;;4939660;29;20055;-88
2021/12/24 23:11:09;;;;;;;3.88;1.33;;;-0.50;99.90;;;;;;4939360;29;20051;-88
2021/12/24 23:13:36;;;;;;;3.42;1.10;;;-0.60;99.90;;;;;;4939414;29;20509;-88
2021/12/24 23:16:14;;;;;;;5.18;1.15;;;-0.60;99.90;;;;;;4939456;29;20403;-88
2021/12/24 23:18:42;;;;;;;4.57;0.85;;;-0.60;99.90;;;;;;4939714;29;20047;-88
2021/12/24 23:21:07;;;;;;;3.92;1.13;;;-0.50;99.90;;;;;;4939000;29;20047;-88
2021/12/24 23:23:33;;;;;;;5.10;1.10;;;-0.60;99.90;;;;;;4939302;29;20102;-88
2021/12/24 23:26:01;;;;;;;2.80;1.73;;;-0.60;99.90;;;;;;4939448;29;20418;-89
2021/12/24 23:28:27;;;;;;;5.72;0.70;;;-0.60;99.90;;;;;;4939430;29;20039;-89
2021/12/24 23:30:54;;;;;;;4.22;1.00;;;-0.60;99.90;;;;;;4938975;29;20503;-89
2021/12/24 23:33:21;;;;;;;4.95;0.70;;;-0.70;99.90;;;;;;4939284;29;20506;-88
2021/12/24 23:35:59;;;;;;;6.90;1.63;;;-0.70;99.90;;;;;;4939360;29;20435;-88
2021/12/24 23:38:25;;;;;;;3.20;0.80;;;-0.70;99.90;;;;;;4938993;29;20137;-89
2021/12/24 23:41:06;;;;;;;5.70;0.50;;;-0.70;99.90;;;;;;4938831;29;20134;-89
2021/12/24 23:43:34;;;;;;;6.57;0.90;;;-0.70;99.90;;;;;;4938897;29;20130;-89
2021/12/24 23:48:46;;;;;;;7.13;1.30;;;-0.80;99.90;;;;;;4928867;29;20055;-86
2021/12/24 23:51:12;;;;;;;1.58;0.70;;;-0.80;99.90;;;;;;4938631;29;20039;-84
2021/12/24 23:53:38;;;;;;;5.57;0.75;;;-0.90;99.90;;;;;;4956143;29;20047;-84
2021/12/24 23:56:08;;;;;;;3.83;0.60;;;-0.80;99.90;;;;;;4938691;29;20441;-84